Time;durP1;ratioP1;P1;durP2;ratioP2;P2;SDS_P1;SDS_P2;PMS_P1;PMS_P2;Temp;Humidity;BMP_temperature;BMP_pressure;BME280_temperature;BME280_humidity;BME280_pressure;Samples;Min_cycle;Max_cycle;Signal;HPM_P1;HPM_P2
2022/05/02 00:02:24;;;;;;;14.90;11.00;;;9.40;19.10;;;;;;5010013;28;25071;-69
2022/05/02 00:04:50;;;;;;;11.60;9.70;;;9.40;19.10;;;;;;5008164;28;25100;-70
2022/05/02 00:07:16;;;;;;;11.75;9.77;;;9.30;19.30;;;;;;5009383;28;25075;-71
2022/05/02 00:09:42;;;;;;;13.10;10.40;;;9.30;18.70;;;;;;5009589;28;25077;-70
2022/05/02 00:12:08;;;;;;;13.68;9.88;;;9.30;19.10;;;;;;5009307;28;25077;-70
2022/05/02 00:14:33;;;;;;;13.70;10.30;;;9.30;18.60;;;;;;5008148;28;25178;-70
2022/05/02 00:16:59;;;;;;;12.98;9.63;;;9.30;18.10;;;;;;5008479;28;25103;-68
2022/05/02 00:19:24;;;;;;;12.23;9.55;;;9.30;18.20;;;;;;5005564;28;25128;-69
2022/05/02 00:21:50;;;;;;;12.65;8.73;;;9.30;18.30;;;;;;5008104;28;25151;-70
2022/05/02 00:24:16;;;;;;;13.05;9.60;;;9.30;18.20;;;;;;5006702;28;25098;-69
2022/05/02 00:26:41;;;;;;;10.32;8.45;;;9.40;17.00;;;;;;5010479;28;25094;-70
2022/05/02 00:29:07;;;;;;;13.43;9.00;;;9.40;16.80;;;;;;5007646;28;25132;-70
2022/05/02 00:31:33;;;;;;;15.25;10.18;;;9.40;16.30;;;;;;5008766;28;25062;-69
2022/05/02 00:33:58;;;;;;;15.80;10.60;;;9.40;16.60;;;;;;5008393;28;25057;-70
2022/05/02 00:36:25;;;;;;;10.93;9.23;;;9.40;16.90;;;;;;5008311;28;25059;-69
2022/05/02 00:38:51;;;;;;;13.70;9.85;;;9.40;16.50;;;;;;5007329;28;25154;-70
2022/05/02 00:41:18;;;;;;;13.98;9.38;;;9.40;16.60;;;;;;5004989;28;25133;-70
2022/05/02 00:43:44;;;;;;;12.27;10.32;;;9.40;16.40;;;;;;5007948;28;25137;-71
2022/05/02 00:46:18;;;;;;;13.80;10.75;;;9.40;17.20;;;;;;5007245;28;25074;-70
2022/05/02 00:48:43;;;;;;;12.00;9.70;;;9.40;17.30;;;;;;5007713;28;25094;-69
2022/05/02 00:51:09;;;;;;;16.95;10.43;;;9.40;17.30;;;;;;5007210;28;25095;-71
2022/05/02 00:53:34;;;;;;;13.93;9.63;;;9.40;17.40;;;;;;5005132;28;25078;-69
2022/05/02 00:56:00;;;;;;;14.55;10.15;;;9.30;17.90;;;;;;5006301;28;25145;-69
2022/05/02 00:58:26;;;;;;;16.58;10.82;;;9.30;17.70;;;;;;5005590;28;25067;-69
2022/05/02 01:00:51;;;;;;;16.67;10.55;;;9.30;18.40;;;;;;5004981;28;25069;-69
2022/05/02 01:03:17;;;;;;;18.17;11.35;;;9.30;18.60;;;;;;5007639;28;25121;-70
2022/05/02 01:08:32;;;;;;;15.05;11.15;;;9.30;19.30;;;;;;5005679;28;25058;-69
2022/05/02 01:10:59;;;;;;;14.77;9.93;;;9.30;19.70;;;;;;5007173;28;25062;-70
2022/05/02 01:13:39;;;;;;;15.88;11.13;;;9.30;21.10;;;;;;5004441;28;25068;-70
2022/05/02 01:16:16;;;;;;;15.43;10.40;;;9.30;21.10;;;;;;5006535;28;25158;-70
2022/05/02 01:18:47;;;;;;;13.77;10.75;;;9.40;20.60;;;;;;5004808;28;25053;-68
2022/05/02 01:21:15;;;;;;;13.65;10.88;;;9.40;21.40;;;;;;5005711;28;25056;-70
2022/05/02 01:23:42;;;;;;;13.23;10.80;;;9.40;20.70;;;;;;5004340;28;25121;-70
2022/05/02 01:26:07;;;;;;;14.95;10.88;;;9.40;21.20;;;;;;5005439;28;25062;-70
2022/05/02 01:28:43;;;;;;;15.27;11.73;;;9.40;20.60;;;;;;5005032;28;25052;-70
2022/05/02 01:31:09;;;;;;;14.95;11.85;;;9.40;20.60;;;;;;5004710;28;25109;-71
2022/05/02 01:33:35;;;;;;;14.05;10.60;;;9.40;21.20;;;;;;5004243;28;25085;-69
2022/05/02 01:36:01;;;;;;;17.65;10.98;;;9.40;21.40;;;;;;5007245;28;25079;-70
2022/05/02 01:38:28;;;;;;;16.42;11.90;;;9.30;21.50;;;;;;5007820;28;25103;-69
2022/05/02 01:40:54;;;;;;;16.42;11.65;;;9.40;22.70;;;;;;5007598;28;25085;-70
2022/05/02 01:43:19;;;;;;;16.50;11.55;;;9.30;23.00;;;;;;5007118;28;25157;-70
2022/05/02 01:45:45;;;;;;;16.48;11.40;;;9.20;24.00;;;;;;5009547;28;25062;-69
2022/05/02 01:48:10;;;;;;;19.67;12.15;;;9.20;24.60;;;;;;5009075;28;25125;-71
2022/05/02 01:50:36;;;;;;;18.67;11.32;;;9.20;25.50;;;;;;5009773;28;25074;-70
2022/05/02 01:53:01;;;;;;;14.45;11.15;;;9.20;25.90;;;;;;5006584;28;25084;-70
2022/05/02 01:55:27;;;;;;;15.35;11.38;;;9.10;25.90;;;;;;5006810;28;25067;-69
2022/05/02 01:57:53;;;;;;;13.40;11.23;;;9.10;27.20;;;;;;5008745;28;25099;-70
2022/05/02 02:00:18;;;;;;;15.63;12.45;;;9.10;27.90;;;;;;5006194;28;25086;-71
2022/05/02 02:02:44;;;;;;;17.08;12.52;;;9.10;29.40;;;;;;5006411;28;25071;-69
2022/05/02 02:07:54;;;;;;;15.82;12.10;;;9.10;30.10;;;;;;5008027;28;25097;-70
2022/05/02 02:10:20;;;;;;;18.33;12.43;;;9.10;30.00;;;;;;5007876;28;25081;-69
2022/05/02 02:12:45;;;;;;;17.05;12.45;;;9.10;29.00;;;;;;5005526;28;25152;-69
2022/05/02 02:15:14;;;;;;;14.05;11.40;;;9.10;29.90;;;;;;5005679;28;25071;-69
2022/05/02 02:17:41;;;;;;;15.95;12.05;;;9.10;30.40;;;;;;5005263;28;25122;-69
2022/05/02 02:20:07;;;;;;;19.48;12.32;;;9.00;29.30;;;;;;5006139;28;25074;-70
2022/05/02 02:22:33;;;;;;;15.27;12.00;;;9.00;30.00;;;;;;5007037;28;25063;-70
2022/05/02 02:24:59;;;;;;;17.23;12.88;;;9.00;31.70;;;;;;5009090;28;25136;-70
2022/05/02 02:27:25;;;;;;;18.20;12.02;;;9.00;32.10;;;;;;5008202;28;25084;-70
2022/05/02 02:29:50;;;;;;;18.08;12.85;;;9.00;32.70;;;;;;5009523;28;25115;-69
2022/05/02 02:32:16;;;;;;;16.27;13.32;;;9.00;32.10;;;;;;5007776;28;25113;-69
2022/05/02 02:34:41;;;;;;;19.85;13.48;;;9.00;32.60;;;;;;5008448;28;25117;-68
2022/05/02 02:37:07;;;;;;;18.60;13.15;;;8.90;33.70;;;;;;5008539;28;25076;-69
2022/05/02 02:39:34;;;;;;;19.92;13.25;;;8.90;33.50;;;;;;5006686;28;25095;-71
2022/05/02 02:41:59;;;;;;;19.52;13.68;;;8.80;37.50;;;;;;5006583;28;25064;-69
2022/05/02 02:44:25;;;;;;;21.38;13.38;;;8.70;38.40;;;;;;5006521;28;25074;-72
2022/05/02 02:46:50;;;;;;;20.98;13.43;;;8.60;42.80;;;;;;5008866;28;25059;-70
2022/05/02 02:49:16;;;;;;;17.33;13.70;;;8.60;42.80;;;;;;5008050;28;25082;-70
2022/05/02 02:51:41;;;;;;;16.98;13.18;;;8.70;42.50;;;;;;5010053;28;25064;-70
2022/05/02 02:54:07;;;;;;;19.00;13.52;;;8.60;41.40;;;;;;5011885;28;25102;-69
2022/05/02 02:56:32;;;;;;;18.83;14.15;;;8.60;43.40;;;;;;5022817;28;25059;-70
2022/05/02 02:58:58;;;;;;;19.95;14.27;;;8.60;45.40;;;;;;5022226;28;25058;-71
2022/05/02 03:01:24;;;;;;;21.90;14.90;;;8.60;44.60;;;;;;5019390;28;25070;-70
2022/05/02 03:03:49;;;;;;;21.67;13.90;;;8.50;44.90;;;;;;5022867;28;25072;-68
2022/05/02 03:06:15;;;;;;;19.30;14.73;;;8.50;47.50;;;;;;5027367;28;25102;-69
2022/05/02 03:08:41;;;;;;;20.10;14.10;;;8.40;48.90;;;;;;5026544;28;25062;-70
2022/05/02 03:11:08;;;;;;;23.10;14.88;;;8.50;48.90;;;;;;5026518;28;25093;-69
2022/05/02 03:13:34;;;;;;;17.35;13.23;;;8.40;48.80;;;;;;5024636;28;25084;-69
2022/05/02 03:16:00;;;;;;;22.20;14.25;;;8.30;50.30;;;;;;5021132;28;25137;-69
2022/05/02 03:18:26;;;;;;;17.38;13.65;;;8.20;52.10;;;;;;5016282;28;25073;-69
2022/05/02 03:20:51;;;;;;;22.50;15.73;;;8.20;53.90;;;;;;5021493;28;25059;-68
2022/05/02 03:23:17;;;;;;;19.77;14.60;;;8.20;56.00;;;;;;5034420;28;25140;-68
2022/05/02 03:25:43;;;;;;;21.25;15.40;;;8.20;56.40;;;;;;5025585;28;25070;-69
2022/05/02 03:28:09;;;;;;;21.75;15.25;;;8.20;58.20;;;;;;5013418;28;25155;-70
2022/05/02 03:30:34;;;;;;;21.67;15.02;;;8.30;59.20;;;;;;5012226;28;25089;-69
2022/05/02 03:33:01;;;;;;;21.65;15.73;;;8.30;58.50;;;;;;5013774;28;25082;-69
2022/05/02 03:35:26;;;;;;;21.45;14.75;;;8.30;56.80;;;;;;5013600;28;25062;-71
2022/05/02 03:37:52;;;;;;;22.40;16.08;;;8.20;57.80;;;;;;5013458;28;25065;-70
2022/05/02 03:40:18;;;;;;;22.38;15.45;;;8.10;58.80;;;;;;5013049;28;25094;-71
2022/05/02 03:42:43;;;;;;;20.67;15.25;;;8.00;60.20;;;;;;5013824;28;25165;-70
2022/05/02 03:45:09;;;;;;;22.75;15.75;;;8.00;62.90;;;;;;5011497;28;25073;-69
2022/05/02 03:47:34;;;;;;;17.15;13.98;;;8.10;61.20;;;;;;5011689;28;25072;-70
2022/05/02 03:50:00;;;;;;;18.63;15.02;;;8.00;61.40;;;;;;5012549;28;25069;-69
2022/05/02 03:52:26;;;;;;;20.75;15.93;;;7.90;61.60;;;;;;5013299;28;25112;-70
2022/05/02 03:54:52;;;;;;;21.17;16.90;;;7.90;64.50;;;;;;5012674;28;25118;-69
2022/05/02 03:57:18;;;;;;;23.77;15.80;;;7.70;65.70;;;;;;5013343;28;25061;-70
2022/05/02 03:59:45;;;;;;;21.58;15.70;;;7.70;69.40;;;;;;5010531;28;25104;-70
2022/05/02 04:02:11;;;;;;;23.15;16.40;;;7.80;69.60;;;;;;5014071;28;25054;-70
2022/05/02 04:04:36;;;;;;;24.42;16.98;;;7.80;70.00;;;;;;5014504;28;25053;-70
2022/05/02 04:07:02;;;;;;;23.00;16.15;;;7.70;72.50;;;;;;5013679;28;25061;-70
2022/05/02 04:09:27;;;;;;;28.20;17.27;;;7.70;73.20;;;;;;5012403;28;25104;-70
2022/05/02 04:11:53;;;;;;;24.95;16.63;;;7.70;73.30;;;;;;5014573;28;25158;-69
2022/05/02 04:14:19;;;;;;;25.08;17.23;;;7.60;73.90;;;;;;5014598;28;25057;-71
2022/05/02 04:16:45;;;;;;;23.15;16.55;;;7.60;75.50;;;;;;5012370;28;25045;-69
2022/05/02 04:19:10;;;;;;;24.85;18.42;;;7.60;77.50;;;;;;5009015;28;25054;-71
2022/05/02 04:21:36;;;;;;;25.52;17.98;;;7.60;78.30;;;;;;5010888;28;25055;-71
2022/05/02 04:24:02;;;;;;;23.75;16.83;;;7.60;79.20;;;;;;5010426;28;25056;-68
2022/05/02 04:26:28;;;;;;;22.70;16.33;;;7.60;78.40;;;;;;5007857;28;25119;-69
2022/05/02 04:28:53;;;;;;;25.67;16.08;;;7.60;79.30;;;;;;5004906;28;25062;-71
2022/05/02 04:31:19;;;;;;;24.23;17.10;;;7.70;77.60;;;;;;5007405;28;25169;-71
2022/05/02 04:33:45;;;;;;;24.80;17.67;;;7.60;76.50;;;;;;5005703;28;25095;-69
2022/05/02 04:36:11;;;;;;;27.00;18.15;;;7.60;78.30;;;;;;5007901;28;25121;-69
2022/05/02 04:38:37;;;;;;;25.55;17.50;;;7.60;79.60;;;;;;5005788;28;25087;-70
2022/05/02 04:41:02;;;;;;;25.10;17.90;;;7.60;82.10;;;;;;5003505;28;25087;-69
2022/05/02 04:43:28;;;;;;;26.42;18.50;;;7.50;85.00;;;;;;5006068;28;25061;-68
2022/05/02 04:45:53;;;;;;;35.75;20.02;;;7.50;87.20;;;;;;5004458;28;25065;-70
2022/05/02 04:48:19;;;;;;;30.70;19.80;;;7.50;90.40;;;;;;5005666;28;25101;-70
2022/05/02 04:50:45;;;;;;;28.38;19.27;;;7.40;91.30;;;;;;5006493;28;25189;-70
2022/05/02 04:53:10;;;;;;;28.77;18.90;;;7.40;92.70;;;;;;5005696;28;25119;-69
2022/05/02 04:55:36;;;;;;;35.13;20.15;;;7.40;94.10;;;;;;5006209;28;25094;-69
2022/05/02 04:58:01;;;;;;;29.73;18.83;;;7.40;95.60;;;;;;5005593;28;25099;-69
2022/05/02 05:00:27;;;;;;;25.00;18.77;;;7.40;96.10;;;;;;5006076;28;25064;-69
2022/05/02 05:02:52;;;;;;;33.30;19.20;;;7.40;97.70;;;;;;5007002;28;25120;-69
2022/05/02 05:05:18;;;;;;;26.35;18.42;;;7.40;97.90;;;;;;5009702;28;25132;-69
2022/05/02 05:07:44;;;;;;;30.50;18.85;;;7.50;98.10;;;;;;5015155;28;25079;-69
2022/05/02 05:10:10;;;;;;;24.27;16.05;;;7.50;98.60;;;;;;5012954;28;25058;-70
2022/05/02 05:13:01;;;;;;;27.38;17.90;;;7.50;98.20;;;;;;5008886;28;25095;-70
2022/05/02 05:18:49;;;;;;;21.60;16.05;;;7.70;95.10;;;;;;5005466;28;25166;-68
2022/05/02 05:21:41;;;;;;;26.45;17.55;;;7.70;92.70;;;;;;5005735;28;25066;-69
2022/05/02 05:24:19;;;;;;;24.87;18.30;;;7.70;91.50;;;;;;5003782;28;25115;-69
2022/05/02 05:26:58;;;;;;;25.08;18.25;;;7.70;90.90;;;;;;5004891;28;25097;-68
2022/05/02 05:30:01;;;;;;;21.83;17.85;;;7.80;90.60;;;;;;5006095;28;25181;-68
2022/05/02 05:32:38;;;;;;;30.35;17.95;;;7.80;89.70;;;;;;5021322;28;25095;-69
2022/05/02 05:35:08;;;;;;;30.67;17.70;;;7.90;88.20;;;;;;5007707;28;25077;-69
2022/05/02 05:37:37;;;;;;;21.98;16.75;;;7.90;86.90;;;;;;5008499;28;25154;-70
2022/05/02 05:40:12;;;;;;;27.40;18.85;;;8.00;86.00;;;;;;5006487;28;25069;-72
2022/05/02 05:42:52;;;;;;;21.75;17.50;;;8.00;84.20;;;;;;5008499;28;25193;-69
2022/05/02 05:45:36;;;;;;;27.15;17.13;;;8.20;82.20;;;;;;5009199;28;25145;-69
2022/05/02 05:48:12;;;;;;;23.55;18.00;;;8.30;79.90;;;;;;5020145;28;25075;-70
2022/05/02 05:50:48;;;;;;;25.98;17.50;;;8.30;75.90;;;;;;5032578;28;25076;-69
2022/05/02 05:53:25;;;;;;;27.40;18.08;;;8.40;73.10;;;;;;5025685;28;25080;-67
2022/05/02 05:56:27;;;;;;;24.67;16.73;;;8.40;71.90;;;;;;5030658;28;25057;-69
2022/05/02 05:59:10;;;;;;;21.10;16.70;;;8.50;69.50;;;;;;5022325;28;25053;-70
2022/05/02 06:01:49;;;;;;;25.52;16.00;;;8.70;64.50;;;;;;5007735;28;25057;-68
2022/05/02 06:04:16;;;;;;;33.78;17.92;;;8.80;62.40;;;;;;5008887;28;25076;-69
2022/05/02 06:06:44;;;;;;;26.58;17.05;;;8.80;57.70;;;;;;5008598;28;25058;-70
2022/05/02 06:09:10;;;;;;;26.50;17.20;;;8.90;56.70;;;;;;5007630;28;25062;-66
2022/05/02 06:11:39;;;;;;;26.33;17.38;;;8.90;53.10;;;;;;5007995;28;25148;-69
2022/05/02 06:14:06;;;;;;;24.80;16.10;;;9.10;52.40;;;;;;5008024;28;25175;-68
2022/05/02 06:19:24;;;;;;;22.15;16.60;;;9.40;46.40;;;;;;5007496;28;25059;-70
2022/05/02 06:21:50;;;;;;;18.35;14.93;;;9.50;46.00;;;;;;5006705;28;25150;-70
2022/05/02 06:24:16;;;;;;;27.05;16.42;;;9.80;40.20;;;;;;5007518;28;25077;-73
2022/05/02 06:26:43;;;;;;;24.27;16.02;;;10.00;38.50;;;;;;5008051;28;25054;-72
2022/05/02 06:29:10;;;;;;;23.95;16.23;;;10.30;32.70;;;;;;5007769;28;25066;-71
2022/05/02 06:31:37;;;;;;;28.15;16.90;;;10.00;26.40;;;;;;5007290;28;25133;-70
2022/05/02 06:34:04;;;;;;;28.30;16.67;;;9.80;28.90;;;;;;5007711;28;25076;-70
2022/05/02 06:36:36;;;;;;;21.42;15.70;;;9.80;28.60;;;;;;5006634;28;25044;-71
2022/05/02 06:39:16;;;;;;;26.40;16.02;;;9.90;29.10;;;;;;5006279;28;25059;-70
2022/05/02 06:42:02;;;;;;;21.98;15.40;;;10.00;23.10;;;;;;5006644;28;25061;-70
2022/05/02 06:45:05;;;;;;;20.90;15.82;;;9.90;23.60;;;;;;5006909;28;25056;-70
2022/05/02 06:47:58;;;;;;;18.75;15.13;;;10.20;21.10;;;;;;4986506;28;25079;-70
2022/05/02 06:50:25;;;;;;;25.90;15.10;;;10.40;20.80;;;;;;5006392;28;25067;-70
2022/05/02 06:53:09;;;;;;;23.55;15.70;;;10.50;17.30;;;;;;5008048;28;25067;-70
2022/05/02 06:55:40;;;;;;;22.75;15.32;;;10.50;17.80;;;;;;5006263;28;25061;-70
2022/05/02 06:58:31;;;;;;;25.30;14.90;;;10.50;18.10;;;;;;5007391;28;25058;-70
2022/05/02 07:01:15;;;;;;;25.67;15.60;;;10.70;18.00;;;;;;4996677;28;25065;-69
2022/05/02 07:03:44;;;;;;;24.38;15.40;;;10.70;16.50;;;;;;5007094;28;25103;-69
2022/05/02 07:06:20;;;;;;;22.25;14.90;;;10.90;15.30;;;;;;5007291;28;25056;-70
2022/05/02 07:08:55;;;;;;;22.02;14.88;;;11.00;14.00;;;;;;5022104;28;25064;-72
2022/05/02 07:11:26;;;;;;;23.58;15.18;;;11.20;12.90;;;;;;5023448;28;25058;-72
2022/05/02 07:14:02;;;;;;;22.77;15.57;;;11.50;11.10;;;;;;5019580;28;25076;-71
2022/05/02 07:16:31;;;;;;;25.23;15.50;;;11.70;9.20;;;;;;5022088;28;25106;-69
2022/05/02 07:19:10;;;;;;;21.38;14.10;;;11.70;7.50;;;;;;5014977;28;25082;-69
2022/05/02 07:21:51;;;;;;;20.25;14.77;;;12.00;5.70;;;;;;5009947;28;25057;-70
2022/05/02 07:24:34;;;;;;;19.10;14.40;;;12.00;1.10;;;;;;5007704;28;25099;-70
2022/05/02 07:27:31;;;;;;;20.77;13.77;;;12.30;2.60;;;;;;5007451;28;25189;-71
2022/05/02 07:30:00;;;;;;;17.75;13.75;;;12.30;1.00;;;;;;5007343;28;25071;-71
2022/05/02 07:32:27;;;;;;;16.75;13.85;;;12.20;1.40;;;;;;5007632;28;25058;-70
2022/05/02 07:34:55;;;;;;;23.48;15.30;;;12.40;1.00;;;;;;5008328;28;25137;-71
2022/05/02 07:37:22;;;;;;;22.92;14.90;;;12.50;1.00;;;;;;5009393;28;25101;-70
2022/05/02 07:39:49;;;;;;;26.20;13.93;;;12.70;1.00;;;;;;5026561;28;25080;-70
2022/05/02 07:42:16;;;;;;;21.33;13.48;;;12.50;1.00;;;;;;5024636;28;25100;-70
2022/05/02 07:44:43;;;;;;;21.08;14.45;;;12.80;1.00;;;;;;5007612;28;25062;-71
2022/05/02 07:47:13;;;;;;;20.70;14.50;;;12.80;1.00;;;;;;5007309;28;25109;-71
2022/05/02 07:49:39;;;;;;;20.15;15.27;;;13.20;1.00;;;;;;5007082;28;25079;-70
2022/05/02 07:52:09;;;;;;;20.52;13.82;;;13.60;1.00;;;;;;5011326;28;25073;-71
2022/05/02 07:54:42;;;;;;;20.00;13.88;;;13.80;1.00;;;;;;5009852;28;25139;-72
2022/05/02 07:57:09;;;;;;;19.02;13.55;;;13.80;1.00;;;;;;5010037;28;25078;-70
2022/05/02 07:59:38;;;;;;;19.00;13.50;;;13.60;1.00;;;;;;5010725;28;25057;-69
2022/05/02 08:02:05;;;;;;;20.20;14.73;;;13.90;1.00;;;;;;5010974;28;25137;-69
2022/05/02 08:04:31;;;;;;;20.25;14.13;;;14.20;1.00;;;;;;5011340;28;25081;-70
2022/05/02 08:07:02;;;;;;;18.15;12.90;;;14.40;1.00;;;;;;5012707;28;25064;-70
2022/05/02 08:10:05;;;;;;;19.95;14.52;;;14.40;1.00;;;;;;5013985;28;25187;-68
2022/05/02 08:12:40;;;;;;;19.50;13.77;;;14.10;1.00;;;;;;5037999;28;25059;-69
2022/05/02 08:15:30;;;;;;;21.38;14.07;;;14.40;1.00;;;;;;5032341;28;25073;-71
2022/05/02 08:18:17;;;;;;;20.60;13.32;;;14.10;1.00;;;;;;5012063;28;25066;-70
2022/05/02 08:20:56;;;;;;;15.30;11.95;;;14.30;1.00;;;;;;5011191;28;25164;-70
2022/05/02 08:27:31;;;;;;;19.55;12.48;;;14.70;1.00;;;;;;5011433;28;25073;-71
2022/05/02 08:30:08;;;;;;;21.38;13.05;;;14.80;1.00;;;;;;5011244;28;25053;-71
2022/05/02 08:32:42;;;;;;;18.60;12.32;;;14.70;1.00;;;;;;5010044;28;25098;-69
2022/05/02 08:35:16;;;;;;;16.75;12.93;;;14.80;1.00;;;;;;5010093;28;25035;-70
2022/05/02 08:38:19;;;;;;;18.83;12.50;;;15.00;1.00;;;;;;5010778;28;25084;-69
2022/05/02 08:41:19;;;;;;;22.02;12.80;;;15.50;1.00;;;;;;5000134;28;25090;-71
2022/05/02 08:44:06;;;;;;;19.65;13.05;;;15.80;1.00;;;;;;5010308;28;25070;-68
2022/05/02 08:46:38;;;;;;;17.15;12.63;;;15.60;1.00;;;;;;5011201;28;25056;-70
2022/05/02 08:49:36;;;;;;;18.25;12.63;;;15.70;1.00;;;;;;5009682;28;25132;-69
2022/05/02 08:52:16;;;;;;;20.60;13.13;;;15.90;1.00;;;;;;5009820;28;25152;-70
2022/05/02 08:55:06;;;;;;;16.80;11.65;;;15.00;1.00;;;;;;5010020;28;25054;-69
2022/05/02 08:58:09;;;;;;;15.15;11.15;;;15.10;1.00;;;;;;5010690;28;25065;-70
2022/05/02 09:00:40;;;;;;;20.63;11.88;;;15.80;1.00;;;;;;5015387;28;25078;-72
2022/05/02 09:03:24;;;;;;;16.02;11.95;;;15.50;1.00;;;;;;5010899;28;25079;-71
2022/05/02 09:05:59;;;;;;;12.07;10.43;;;15.50;1.00;;;;;;5013441;28;25084;-69
2022/05/02 09:08:36;;;;;;;22.30;11.63;;;15.80;1.00;;;;;;5013081;28;25126;-69
2022/05/02 09:11:33;;;;;;;17.05;10.95;;;15.50;1.00;;;;;;5015708;28;25073;-70
2022/05/02 09:14:16;;;;;;;14.57;11.57;;;15.90;1.00;;;;;;5018845;28;25073;-70
2022/05/02 09:17:00;;;;;;;19.30;11.40;;;15.40;1.00;;;;;;5017882;28;25084;-70
2022/05/02 09:19:44;;;;;;;11.60;9.18;;;15.20;1.00;;;;;;5021743;28;25123;-71
2022/05/02 09:22:20;;;;;;;13.48;9.55;;;15.30;1.00;;;;;;5022263;28;25069;-70
2022/05/02 09:25:04;;;;;;;12.85;9.88;;;15.30;1.00;;;;;;5020726;28;25071;-68
2022/05/02 09:27:42;;;;;;;13.60;9.68;;;15.60;1.00;;;;;;5023193;28;25073;-71
2022/05/02 09:30:11;;;;;;;13.90;10.20;;;15.80;1.00;;;;;;5022348;28;25084;-69
2022/05/02 09:33:17;;;;;;;14.85;9.73;;;15.70;1.00;;;;;;5023942;28;25055;-69
2022/05/02 09:36:14;;;;;;;12.48;9.77;;;16.00;1.00;;;;;;5021342;28;25085;-70
2022/05/02 09:38:48;;;;;;;14.07;9.45;;;15.80;1.00;;;;;;5021059;28;25074;-69
2022/05/02 09:41:24;;;;;;;11.50;8.63;;;16.00;1.00;;;;;;5021717;28;25055;-72
2022/05/02 09:50:03;;;;;;;10.65;9.25;;;16.30;1.00;;;;;;5022584;28;25055;-70
2022/05/02 09:52:50;;;;;;;15.68;11.00;;;16.50;1.00;;;;;;5030145;28;25103;-70
2022/05/02 09:58:20;;;;;;;15.38;9.75;;;16.70;1.00;;;;;;5021093;28;25085;-70
2022/05/02 10:01:06;;;;;;;19.73;10.45;;;16.70;1.00;;;;;;5011241;28;25078;-69
2022/05/02 10:03:51;;;;;;;16.95;10.80;;;16.70;1.00;;;;;;5008270;28;25026;-68
2022/05/02 10:06:30;;;;;;;16.58;10.35;;;16.90;1.00;;;;;;5000774;28;25080;-70
2022/05/02 10:09:20;;;;;;;13.77;9.75;;;17.10;1.00;;;;;;5008604;28;25086;-71
2022/05/02 10:12:24;;;;;;;12.38;10.45;;;17.20;1.00;;;;;;4988040;28;25123;-69
2022/05/02 10:15:00;;;;;;;13.57;11.13;;;17.20;1.00;;;;;;5006849;28;25067;-69
2022/05/02 10:18:08;;;;;;;15.15;10.65;;;17.10;1.00;;;;;;5008438;28;25061;-71
2022/05/02 10:20:56;;;;;;;14.63;9.07;;;17.20;1.00;;;;;;5007534;28;25118;-71
2022/05/02 10:23:49;;;;;;;13.82;10.45;;;17.70;1.00;;;;;;5007873;28;25093;-69
2022/05/02 10:26:40;;;;;;;11.63;9.18;;;17.70;1.00;;;;;;5007295;28;25120;-69
2022/05/02 10:29:35;;;;;;;13.57;9.85;;;17.60;1.00;;;;;;5005582;28;25059;-69
2022/05/02 10:32:39;;;;;;;13.30;9.63;;;17.00;1.00;;;;;;5007647;28;25097;-71
2022/05/02 10:35:13;;;;;;;740.25;117.50;;;17.20;1.00;;;;;;4999869;28;25073;-68
2022/05/02 10:37:42;;;;;;;14.07;9.48;;;17.10;1.00;;;;;;5007969;28;25117;-70
2022/05/02 10:40:16;;;;;;;15.07;11.05;;;17.10;1.00;;;;;;5007757;28;25069;-70
2022/05/02 10:42:50;;;;;;;14.15;9.23;;;17.10;1.00;;;;;;5009887;28;25134;-70
2022/05/02 10:45:16;;;;;;;12.73;10.00;;;17.60;1.00;;;;;;5010124;28;25068;-70
2022/05/02 10:47:52;;;;;;;16.27;10.10;;;17.50;1.00;;;;;;5011578;28;25148;-70
2022/05/02 10:50:18;;;;;;;13.40;9.73;;;17.40;1.00;;;;;;5023111;28;25104;-69
2022/05/02 10:53:02;;;;;;;9.90;8.48;;;17.60;1.00;;;;;;5027827;28;25060;-70
2022/05/02 10:55:33;;;;;;;13.13;9.00;;;17.10;1.00;;;;;;5026348;28;25064;-70
2022/05/02 10:58:04;;;;;;;15.73;8.30;;;17.30;1.00;;;;;;5021661;28;25089;-70
2022/05/02 11:00:31;;;;;;;13.15;9.65;;;17.70;1.00;;;;;;5011044;28;25120;-70
2022/05/02 11:03:26;;;;;;;11.27;8.40;;;17.90;1.00;;;;;;5010338;28;25061;-70
2022/05/02 11:06:21;;;;;;;16.50;10.43;;;18.10;1.00;;;;;;5005230;28;25079;-72
2022/05/02 11:08:51;;;;;;;16.25;9.88;;;18.10;1.00;;;;;;5009002;28;25099;-71
2022/05/02 11:11:28;;;;;;;12.65;9.00;;;17.00;1.00;;;;;;5008749;28;25051;-70
2022/05/02 11:14:00;;;;;;;13.20;8.32;;;17.40;1.00;;;;;;5007238;28;25069;-69
2022/05/02 11:16:40;;;;;;;14.52;8.23;;;17.80;1.00;;;;;;5009022;28;25012;-70
2022/05/02 11:22:48;;;;;;;10.32;6.88;;;18.10;1.00;;;;;;5007167;28;25071;-70
2022/05/02 11:25:22;;;;;;;12.57;6.85;;;17.70;1.00;;;;;;5007955;28;25070;-69
2022/05/02 11:27:57;;;;;;;13.77;6.82;;;17.70;1.00;;;;;;5010866;28;25079;-70
2022/05/02 11:30:27;;;;;;;15.35;8.25;;;18.10;1.00;;;;;;5011461;28;25148;-71
2022/05/02 11:33:19;;;;;;;9.82;6.55;;;17.90;1.00;;;;;;5010649;28;25059;-70
2022/05/02 11:35:49;;;;;;;10.90;6.13;;;18.10;1.00;;;;;;5010875;28;25053;-70
2022/05/02 11:38:54;;;;;;;11.20;6.68;;;18.40;1.00;;;;;;5011395;28;25090;-70
2022/05/02 11:41:22;;;;;;;10.95;6.47;;;18.30;1.00;;;;;;5010852;28;25105;-71
2022/05/02 11:43:49;;;;;;;9.82;6.13;;;18.10;1.00;;;;;;5010383;28;25083;-71
2022/05/02 11:46:20;;;;;;;8.00;6.28;;;18.30;1.00;;;;;;5010581;28;25045;-69
2022/05/02 11:49:37;;;;;;;9.75;7.35;;;18.50;1.00;;;;;;5009710;28;25061;-72
2022/05/02 11:52:11;;;;;;;9.88;6.78;;;17.90;1.00;;;;;;4993013;28;25070;-72
2022/05/02 11:54:39;;;;;;;9.05;6.78;;;18.50;1.00;;;;;;5010262;28;25073;-70
2022/05/02 11:57:28;;;;;;;12.02;6.53;;;19.10;1.00;;;;;;5009584;28;25106;-68
2022/05/02 12:00:06;;;;;;;8.70;6.72;;;18.50;1.00;;;;;;5011869;28;25093;-69
2022/05/02 12:02:42;;;;;;;11.10;6.35;;;18.80;1.00;;;;;;5011085;28;25058;-69
2022/05/02 12:05:31;;;;;;;8.70;6.15;;;18.30;1.00;;;;;;5012082;28;25126;-69
2022/05/02 12:08:01;;;;;;;10.23;6.35;;;17.90;1.00;;;;;;5010801;28;25054;-69
2022/05/02 12:10:47;;;;;;;9.13;7.32;;;18.30;1.00;;;;;;5009589;28;25069;-69
2022/05/02 12:13:18;;;;;;;11.05;6.65;;;18.50;1.00;;;;;;5010278;28;25095;-71
2022/05/02 12:16:08;;;;;;;13.88;6.43;;;18.50;1.00;;;;;;5010123;28;25076;-71
2022/05/02 12:18:48;;;;;;;8.48;7.60;;;18.40;1.00;;;;;;5009554;28;25065;-70
2022/05/02 12:21:30;;;;;;;12.75;7.82;;;18.50;1.00;;;;;;5008903;28;25097;-70
2022/05/02 12:23:58;;;;;;;8.97;7.13;;;18.60;1.00;;;;;;5009255;28;25077;-70
2022/05/02 12:26:24;;;;;;;10.05;6.97;;;18.90;1.00;;;;;;5009507;28;25072;-70
2022/05/02 12:28:52;;;;;;;13.02;7.13;;;19.30;1.00;;;;;;5010037;28;25071;-70
2022/05/02 12:31:31;;;;;;;9.73;7.13;;;18.50;1.00;;;;;;5009939;28;25089;-70
2022/05/02 12:34:02;;;;;;;8.02;6.15;;;18.20;1.00;;;;;;5009113;28;25069;-68
2022/05/02 12:36:47;;;;;;;14.98;7.10;;;18.10;1.00;;;;;;5006786;28;25178;-69
2022/05/02 12:39:27;;;;;;;9.95;6.35;;;18.50;1.00;;;;;;5021937;28;25075;-71
2022/05/02 12:42:14;;;;;;;8.63;6.15;;;18.60;1.00;;;;;;5014486;28;25093;-70
2022/05/02 12:45:01;;;;;;;10.80;7.25;;;18.30;1.00;;;;;;5031392;28;25061;-70
2022/05/02 12:47:33;;;;;;;9.27;6.93;;;18.20;1.00;;;;;;5023708;28;25058;-72
2022/05/02 12:50:11;;;;;;;10.63;7.88;;;18.50;1.00;;;;;;5018817;28;25076;-69
2022/05/02 12:52:50;;;;;;;9.77;7.45;;;18.00;1.00;;;;;;5002129;28;25080;-69
2022/05/02 12:55:19;;;;;;;14.27;6.88;;;18.20;1.00;;;;;;5018891;28;25060;-70
2022/05/02 13:00:32;;;;;;;13.35;7.10;;;18.40;1.00;;;;;;5029292;28;25110;-71
2022/05/02 13:03:11;;;;;;;9.15;6.03;;;18.40;1.00;;;;;;5032267;28;25086;-72
2022/05/02 13:05:45;;;;;;;12.18;7.03;;;18.30;1.00;;;;;;5031293;28;25095;-70
2022/05/02 13:08:13;;;;;;;11.50;6.55;;;17.90;1.00;;;;;;5032730;28;25099;-70
2022/05/02 13:10:42;;;;;;;10.77;6.35;;;17.80;1.00;;;;;;5029962;28;25054;-68
2022/05/02 13:13:12;;;;;;;10.27;6.43;;;17.40;1.00;;;;;;5016629;28;25001;-69
2022/05/02 13:15:44;;;;;;;11.20;6.60;;;17.30;1.00;;;;;;5011502;28;25074;-70
2022/05/02 13:18:18;;;;;;;7.75;6.32;;;17.50;1.00;;;;;;5019399;28;25061;-68
2022/05/02 13:20:58;;;;;;;9.82;6.50;;;17.00;1.00;;;;;;5017048;28;25072;-70
2022/05/02 13:23:38;;;;;;;9.40;6.25;;;17.30;1.00;;;;;;5009892;28;25086;-70
2022/05/02 13:26:18;;;;;;;7.90;5.38;;;17.70;1.00;;;;;;5009886;28;25074;-69
2022/05/02 13:29:22;;;;;;;8.35;6.60;;;18.20;1.00;;;;;;5007160;28;25065;-70
2022/05/02 13:32:10;;;;;;;7.18;5.30;;;18.10;1.00;;;;;;4988781;28;25149;-70
2022/05/02 13:34:48;;;;;;;10.82;6.30;;;17.50;1.00;;;;;;5008544;28;25055;-71
2022/05/02 13:37:34;;;;;;;6.57;5.13;;;17.00;1.00;;;;;;5008099;28;25077;-70
2022/05/02 13:40:08;;;;;;;12.07;7.20;;;17.30;1.00;;;;;;5008061;28;25057;-70
2022/05/02 13:42:59;;;;;;;8.68;6.50;;;17.00;1.00;;;;;;5007289;28;25056;-70
2022/05/02 13:45:32;;;;;;;7.57;5.53;;;16.90;1.00;;;;;;5007807;28;25061;-70